Young Harris, GA

8:12 PM EDT on September 17, 2014 (GMT -0400)
NW Brasstown Bald Mtn. Valley | Change Station
CLOSE
Current Station
Personal Weather Station
Location: Young Harris, GA
Elevation: 1959 ft
Nearby Weather Stations

Elev 1959 ft 34.90 °N, 83.86 °W | Updated 2 seconds ago

Partly Cloudy
Partly Cloudy
62.1 °F
Feels Like 62.1 °F
N
1.7
Wind Variable Wind from NNW
Gusts 1.7 mph

Today
High -- | Low -- °F
--% Chance of Precip.
Yesterday
High -- | Low -- °F
Precip. -- in
7:19 AM 7:39 PM
Waning Crescent, 32% visible
Pressure 29.97 in
Visibility 10.0 miles
Clouds Clear
Dew Point 59 °F
Humidity 91%
Rainfall 0.00 in
Snow Depth Not available.
UV 0 out of 12
Pollen 7.20 out of 12
Air Quality Not available.
Flu Activity Not available.
METAR KRHP 172355Z AUTO 00000KT 10SM CLR 18/16 A2997 RMK AO2 T01820162 10260 20182

More Conditions Fewer Conditions

Pressure 29.97 in
Visibility 10.0 miles
Clouds Clear
Dew Point 59 °F
Humidity 91%
Rainfall 0.00 in
Snow Depth Not available.
UV 0 out of 12
Pollen 7.20 out of 12
Air Quality Not available.
Flu Activity Not available.
METAR KRHP 172355Z AUTO 00000KT 10SM CLR 18/16 A2997 RMK AO2 T01820162 10260 20182

More Conditions Fewer Conditions

10-Day Weather Forecast

Almanac

Astronomy

Sep. 17, 2014 Rise Set
Actual Time 7:19 AM EDT 7:39 PM EDT
Civil Twilight 6:54 AM EDT 8:04 PM EDT
Nautical Twilight 6:24 AM EDT 8:34 PM EDT
Astronomical Twilight 5:54 AM EDT 9:04 PM EDT
Moon 1:28 AM EDT (9/17) 3:39 PM EDT (9/17)
Length of Visible Light 13h 10m
Length of Day
12h 19m
Tomorrow will be 2m 10s shorter.
Waning Crescent, 32% of the Moon is Illuminated
Today
Waning Crescent
Sep 24
New
Oct 1
First Quarter
Oct 8
Full
Oct 15
Last Quarter

Today's Extremes

State Highs State Lows

Community

WunderPhotos

Upload Photos

1,754,205 photos uploaded!

Nearby

Snow Depth

Station Depth Elevation
No new snow has been reported.

Earthquake Activity

City Distance Mag. Time & Date
No recent earthquake activity has been reported nearby.
Minimum magnitude displayed is 2.5.

Coastal Water Temperatures

Place Temperature
No Stations Reporting

Nearby Weather Stations